createdAt,value
2022-09-23T00:02:06.541Z,9.93
2022-09-23T00:04:33.143Z,9.83
2022-09-23T00:06:59.780Z,9.90
2022-09-23T00:09:26.407Z,9.76
2022-09-23T00:11:52.927Z,9.91
2022-09-23T00:14:19.436Z,9.85
2022-09-23T00:16:45.986Z,9.69
2022-09-23T00:19:12.860Z,9.63
2022-09-23T00:21:39.363Z,9.58
2022-09-23T00:24:08.036Z,9.67
2022-09-23T00:26:34.720Z,9.71
2022-09-23T00:29:01.225Z,9.74
2022-09-23T00:31:28.169Z,9.76
2022-09-23T00:34:00.311Z,9.77
2022-09-23T00:36:28.777Z,9.74
2022-09-23T00:38:55.740Z,9.72
2022-09-23T00:41:22.769Z,9.71
2022-09-23T00:43:52.853Z,9.64
2022-09-23T00:46:28.181Z,9.58
2022-09-23T00:49:14.025Z,9.61
2022-09-23T00:51:46.683Z,9.49
2022-09-23T00:54:13.459Z,9.52
2022-09-23T00:56:40.371Z,9.46
2022-09-23T00:59:11.213Z,9.48
2022-09-23T01:01:38.303Z,9.49
2022-09-23T01:04:06.835Z,9.42
2022-09-23T01:06:33.467Z,9.23
2022-09-23T01:08:59.986Z,9.24
2022-09-23T01:11:44.732Z,9.24
2022-09-23T01:14:23.757Z,9.30
2022-09-23T01:17:04.518Z,9.30
2022-09-23T01:20:00.160Z,9.33
2022-09-23T01:22:44.549Z,9.21
2022-09-23T01:25:40.767Z,9.11
2022-09-23T01:28:20.838Z,9.27
2022-09-23T01:31:09.265Z,9.35
2022-09-23T01:33:46.132Z,9.27
2022-09-23T01:36:23.676Z,9.21
2022-09-23T01:39:05.583Z,9.12
2022-09-23T01:41:51.689Z,9.26
2022-09-23T01:44:49.911Z,9.30
2022-09-23T01:47:20.691Z,9.36
2022-09-23T01:49:57.631Z,9.10
2022-09-23T01:52:43.069Z,9.30
2022-09-23T01:55:20.921Z,9.27
2022-09-23T01:57:55.654Z,9.07
2022-09-23T02:00:23.305Z,9.18
2022-09-23T02:02:53.983Z,9.05
2022-09-23T02:05:30.483Z,9.18
2022-09-23T02:08:16.011Z,8.93
2022-09-23T02:10:47.121Z,8.72
2022-09-23T02:13:34.268Z,8.68
2022-09-23T02:16:03.912Z,8.83
2022-09-23T02:18:58.256Z,8.76
2022-09-23T02:21:29.356Z,8.88
2022-09-23T02:24:02.735Z,8.88
2022-09-23T02:26:35.997Z,8.60
2022-09-23T02:29:19.023Z,8.43
2022-09-23T02:32:14.563Z,8.52
2022-09-23T02:34:41.144Z,8.51
2022-09-23T02:37:37.174Z,8.44
2022-09-23T02:40:31.032Z,8.36
2022-09-23T02:43:12.619Z,8.20
2022-09-23T02:45:39.341Z,8.17
2022-09-23T02:48:12.027Z,8.06
2022-09-23T02:50:39.272Z,8.08
2022-09-23T02:53:06.527Z,8.05
2022-09-23T02:55:33.203Z,7.86
2022-09-23T02:58:01.448Z,7.91
2022-09-23T03:00:36.196Z,7.77
2022-09-23T03:03:15.753Z,7.79
2022-09-23T03:05:52.563Z,8.01
2022-09-23T03:08:30.099Z,7.86
2022-09-23T03:11:04.211Z,8.02
2022-09-23T03:13:55.955Z,8.24
2022-09-23T03:16:43.570Z,8.16
2022-09-23T03:19:28.543Z,7.91
2022-09-23T03:22:01.276Z,7.76
2022-09-23T03:24:31.247Z,7.92
2022-09-23T03:27:01.261Z,8.08
2022-09-23T03:29:29.068Z,8.06
2022-09-23T03:31:56.800Z,8.19
2022-09-23T03:34:27.491Z,8.24
2022-09-23T03:37:08.628Z,7.84
2022-09-23T03:40:10.017Z,7.63
2022-09-23T03:42:37.626Z,7.55
2022-09-23T03:45:08.288Z,7.42
2022-09-23T03:47:35.426Z,7.90
2022-09-23T03:50:02.002Z,8.07
2022-09-23T03:52:28.547Z,8.07
2022-09-23T03:54:55.118Z,8.10
2022-09-23T03:57:23.201Z,8.13
2022-09-23T03:59:50.611Z,8.22
2022-09-23T04:02:18.458Z,8.13
2022-09-23T04:04:45.655Z,8.31
2022-09-23T04:07:13.435Z,8.29
2022-09-23T04:09:40.328Z,8.26
2022-09-23T04:12:07.454Z,8.24
2022-09-23T04:14:34.104Z,8.33
2022-09-23T04:17:00.660Z,8.34
2022-09-23T04:19:27.620Z,8.32
2022-09-23T04:21:54.538Z,8.37
2022-09-23T04:24:21.725Z,8.11
2022-09-23T04:26:52.351Z,8.06
2022-09-23T04:29:19.725Z,8.04
2022-09-23T04:31:46.365Z,8.13
2022-09-23T04:34:13.235Z,8.33
2022-09-23T04:36:39.826Z,8.31
2022-09-23T04:39:06.733Z,8.12
2022-09-23T04:41:33.534Z,8.12
2022-09-23T04:44:00.118Z,8.10
2022-09-23T04:46:26.773Z,8.24
2022-09-23T04:48:53.368Z,8.27
2022-09-23T04:51:21.604Z,8.16
2022-09-23T04:53:49.686Z,8.22
2022-09-23T04:56:18.891Z,8.36
2022-09-23T04:58:46.116Z,8.39
2022-09-23T05:01:24.210Z,8.31
2022-09-23T05:03:53.636Z,8.35
2022-09-23T05:06:21.272Z,8.54
2022-09-23T05:08:50.209Z,8.43
2022-09-23T05:11:18.621Z,8.42
2022-09-23T05:13:49.121Z,8.35
2022-09-23T05:16:16.287Z,8.38
2022-09-23T05:18:44.069Z,8.50
2022-09-23T05:21:16.172Z,8.49
2022-09-23T05:23:43.223Z,8.51
2022-09-23T05:26:11.678Z,8.55
2022-09-23T05:28:39.379Z,8.33
2022-09-23T05:31:20.240Z,8.05
2022-09-23T05:33:51.673Z,7.93
2022-09-23T05:36:18.937Z,8.01
2022-09-23T05:38:45.549Z,8.22
2022-09-23T05:41:13.446Z,8.21
2022-09-23T05:43:40.948Z,8.26
2022-09-23T05:46:15.917Z,7.97
2022-09-23T05:48:44.107Z,8.05
2022-09-23T05:51:12.769Z,8.42
2022-09-23T05:53:46.847Z,8.54
2022-09-23T05:56:17.703Z,8.53
2022-09-23T05:58:44.617Z,8.48
2022-09-23T06:01:17.873Z,8.39
2022-09-23T06:03:55.349Z,8.40
2022-09-23T06:06:39.760Z,8.73
2022-09-23T06:09:07.854Z,9.14
2022-09-23T06:11:35.322Z,9.03
2022-09-23T06:14:02.550Z,9.12
2022-09-23T06:16:31.747Z,9.41
2022-09-23T06:19:05.034Z,9.58
2022-09-23T06:21:33.236Z,9.86
2022-09-23T06:24:00.585Z,10.22
2022-09-23T06:26:28.399Z,10.44
2022-09-23T06:28:55.012Z,10.61
2022-09-23T06:31:21.539Z,10.79
2022-09-23T06:33:49.993Z,10.86
2022-09-23T06:36:30.978Z,11.06
2022-09-23T06:39:03.760Z,10.84
2022-09-23T06:41:30.515Z,10.28
2022-09-23T06:43:58.010Z,10.30
2022-09-23T06:46:24.915Z,10.60
2022-09-23T06:48:51.761Z,11.28
2022-09-23T06:51:21.699Z,11.48
2022-09-23T06:53:49.098Z,11.50
2022-09-23T06:56:17.270Z,11.53
2022-09-23T06:58:43.933Z,11.70
2022-09-23T07:01:13.033Z,11.79
2022-09-23T07:03:39.719Z,11.76
2022-09-23T07:06:06.574Z,11.63
2022-09-23T07:08:34.299Z,11.88
2022-09-23T07:11:03.467Z,12.06
2022-09-23T07:13:30.523Z,12.00
2022-09-23T07:15:58.888Z,12.20
2022-09-23T07:18:26.801Z,12.28
2022-09-23T07:20:53.727Z,12.42
2022-09-23T07:23:20.720Z,12.59
2022-09-23T07:25:49.435Z,12.58
2022-09-23T07:28:16.065Z,13.02
2022-09-23T07:30:55.699Z,13.24
2022-09-23T07:33:32.329Z,13.26
2022-09-23T07:35:59.601Z,13.73
2022-09-23T07:38:29.939Z,14.07
2022-09-23T07:41:05.020Z,14.19
2022-09-23T07:43:32.504Z,14.26
2022-09-23T07:46:08.265Z,14.18
2022-09-23T07:48:35.998Z,14.41
2022-09-23T07:51:20.845Z,14.56
2022-09-23T07:53:49.114Z,14.72
2022-09-23T07:56:17.221Z,14.48
2022-09-23T07:58:43.791Z,14.72
2022-09-23T08:01:12.008Z,14.80
2022-09-23T08:03:39.377Z,14.69
2022-09-23T08:06:11.992Z,15.01
2022-09-23T08:08:40.446Z,15.22
2022-09-23T08:11:08.628Z,14.96
2022-09-23T08:13:35.158Z,15.00
2022-09-23T08:16:02.109Z,15.09
2022-09-23T08:18:28.753Z,15.40
2022-09-23T08:20:55.319Z,15.24
2022-09-23T08:23:21.981Z,15.39
2022-09-23T08:25:49.028Z,15.66
2022-09-23T08:28:18.852Z,15.54
2022-09-23T08:30:48.593Z,15.53
2022-09-23T08:33:19.631Z,15.61
2022-09-23T08:35:49.479Z,16.14
2022-09-23T08:38:16.078Z,15.87
2022-09-23T08:40:44.560Z,16.19
2022-09-23T08:43:29.010Z,16.22
2022-09-23T08:45:58.354Z,16.19
2022-09-23T08:48:34.738Z,16.20
2022-09-23T08:51:06.628Z,16.19
2022-09-23T08:53:36.000Z,16.44
2022-09-23T08:56:11.615Z,16.44
2022-09-23T08:59:02.020Z,16.13
2022-09-23T09:01:32.315Z,16.73
2022-09-23T09:04:01.341Z,16.57
2022-09-23T09:06:52.411Z,16.78
2022-09-23T09:09:27.222Z,16.71
2022-09-23T09:12:03.079Z,16.65
2022-09-23T09:14:48.365Z,17.21
2022-09-23T09:17:35.561Z,16.79
2022-09-23T09:20:09.477Z,16.37
2022-09-23T09:22:44.154Z,16.52
2022-09-23T09:25:38.732Z,16.57
2022-09-23T09:28:35.728Z,16.68
2022-09-23T09:31:26.661Z,16.49
2022-09-23T09:34:04.525Z,16.98
2022-09-23T09:36:47.237Z,17.06
2022-09-23T09:39:14.756Z,17.20
2022-09-23T09:41:51.974Z,17.14
2022-09-23T09:44:26.761Z,16.98
2022-09-23T09:47:15.105Z,17.25
2022-09-23T09:50:07.892Z,16.73
2022-09-23T09:52:38.369Z,17.21
2022-09-23T09:55:13.757Z,16.85
2022-09-23T09:57:55.292Z,17.13
2022-09-23T10:00:21.822Z,17.25
2022-09-23T10:02:53.369Z,17.30
2022-09-23T10:05:25.931Z,17.36
2022-09-23T10:07:52.670Z,17.39
2022-09-23T10:10:39.524Z,17.65
2022-09-23T10:13:14.794Z,17.95
2022-09-23T10:15:45.034Z,18.11
2022-09-23T10:18:19.593Z,18.02
2022-09-23T10:20:47.234Z,18.07
2022-09-23T10:23:21.217Z,17.84
2022-09-23T10:26:00.103Z,18.01
2022-09-23T10:28:50.496Z,18.10
2022-09-23T10:31:26.746Z,18.00
2022-09-23T10:34:00.306Z,17.70
2022-09-23T10:36:28.493Z,17.82
2022-09-23T10:39:22.557Z,17.82
2022-09-23T10:42:16.698Z,17.84
2022-09-23T10:45:43.297Z,17.73
2022-09-23T10:48:36.594Z,17.99
2022-09-23T10:51:14.561Z,18.20
2022-09-23T10:53:59.204Z,18.02
2022-09-23T10:56:33.942Z,18.34
2022-09-23T10:59:06.963Z,18.97
2022-09-23T11:02:03.285Z,19.37
2022-09-23T11:04:42.010Z,19.37
2022-09-23T11:07:44.863Z,19.30
2022-09-23T11:10:35.201Z,19.19
2022-09-23T11:13:36.112Z,18.93
2022-09-23T11:16:25.729Z,19.11
2022-09-23T11:19:04.858Z,19.33
2022-09-23T11:21:53.046Z,19.01
2022-09-23T11:24:50.978Z,19.30
2022-09-23T11:27:35.792Z,18.91
2022-09-23T11:30:21.161Z,18.92
2022-09-23T11:33:06.565Z,19.09
2022-09-23T11:35:45.828Z,19.52
2022-09-23T11:38:18.708Z,19.70
2022-09-23T11:40:46.633Z,19.57
2022-09-23T11:43:23.493Z,19.29
2022-09-23T11:46:09.863Z,19.43
2022-09-23T11:48:44.097Z,19.50
2022-09-23T11:51:16.530Z,19.22
2022-09-23T11:53:57.435Z,19.41
2022-09-23T11:56:35.916Z,19.49
2022-09-23T11:59:32.267Z,19.55
2022-09-23T12:02:20.821Z,19.32
2022-09-23T12:05:08.960Z,18.94
2022-09-23T12:07:47.943Z,19.00
2022-09-23T12:10:15.675Z,18.94
2022-09-23T12:13:05.001Z,19.24
2022-09-23T12:16:02.749Z,19.16
2022-09-23T12:19:13.993Z,19.40
2022-09-23T12:21:53.259Z,19.58
2022-09-23T12:24:38.680Z,19.27
2022-09-23T12:27:11.051Z,19.46
2022-09-23T12:29:38.602Z,19.48
2022-09-23T12:32:10.147Z,19.71
2022-09-23T12:34:49.995Z,19.76
2022-09-23T12:37:29.149Z,19.52
2022-09-23T12:40:00.046Z,19.79
2022-09-23T12:42:30.962Z,19.88
2022-09-23T12:45:38.616Z,19.95
2022-09-23T12:48:26.610Z,19.97
2022-09-23T12:51:16.388Z,19.96
2022-09-23T12:53:52.491Z,20.19
2022-09-23T12:56:24.791Z,20.00
2022-09-23T12:58:51.220Z,20.16
2022-09-23T13:01:20.165Z,20.05
2022-09-23T13:04:08.605Z,20.02
2022-09-23T13:06:40.880Z,19.61
2022-09-23T13:09:11.108Z,19.85
2022-09-23T13:11:40.417Z,19.78
2022-09-23T13:14:07.864Z,19.57
2022-09-23T13:16:38.130Z,19.48
2022-09-23T13:19:06.443Z,19.98
2022-09-23T13:21:45.871Z,19.97
2022-09-23T13:24:12.709Z,19.95
2022-09-23T13:26:43.689Z,20.11
2022-09-23T13:29:15.829Z,20.01
2022-09-23T13:31:42.720Z,19.76
2022-09-23T13:34:13.189Z,20.10
2022-09-23T13:36:44.665Z,20.25
2022-09-23T13:39:24.602Z,20.28
2022-09-23T13:41:53.662Z,20.26
2022-09-23T13:44:20.901Z,20.26
2022-09-23T13:46:50.503Z,20.07
2022-09-23T13:49:25.728Z,19.98
2022-09-23T13:51:54.136Z,20.07
2022-09-23T13:54:33.416Z,20.12
2022-09-23T13:57:00.347Z,20.19
2022-09-23T13:59:41.946Z,20.06
2022-09-23T14:02:13.933Z,20.25
2022-09-23T14:04:40.561Z,20.41
2022-09-23T14:07:08.296Z,20.64
2022-09-23T14:09:37.971Z,20.45
2022-09-23T14:12:05.734Z,20.37
2022-09-23T14:14:35.197Z,20.35
2022-09-23T14:17:02.558Z,20.50
2022-09-23T14:19:29.246Z,20.84
2022-09-23T14:21:56.617Z,20.85
2022-09-23T14:24:25.518Z,20.88
2022-09-23T14:26:53.807Z,21.10
2022-09-23T14:29:41.274Z,21.02
2022-09-23T14:32:17.942Z,20.93
2022-09-23T14:34:48.387Z,20.82
2022-09-23T14:37:44.020Z,20.86
2022-09-23T14:40:36.098Z,21.02
2022-09-23T14:43:05.607Z,21.09
2022-09-23T14:45:41.759Z,21.20
2022-09-23T14:48:21.381Z,21.29
2022-09-23T14:50:50.449Z,21.30
2022-09-23T14:53:16.936Z,21.07
2022-09-23T14:55:44.088Z,21.01
2022-09-23T14:58:15.936Z,20.80
2022-09-23T15:00:56.407Z,20.73
2022-09-23T15:03:23.158Z,20.62
2022-09-23T15:05:51.966Z,20.55
2022-09-23T15:08:23.687Z,20.41
2022-09-23T15:10:50.392Z,20.32
2022-09-23T15:13:19.383Z,20.45
2022-09-23T15:15:46.202Z,20.14
2022-09-23T15:18:18.715Z,20.26
2022-09-23T15:20:53.817Z,20.17
2022-09-23T15:23:39.116Z,20.21
2022-09-23T15:26:08.752Z,20.11
2022-09-23T15:28:35.264Z,20.03
2022-09-23T15:31:03.032Z,20.01
2022-09-23T15:33:29.900Z,19.90
2022-09-23T15:35:56.960Z,19.98
2022-09-23T15:38:23.836Z,19.73
2022-09-23T15:40:50.592Z,19.70
2022-09-23T15:43:21.187Z,19.64
2022-09-23T15:46:06.063Z,19.51
2022-09-23T15:48:42.263Z,19.54
2022-09-23T15:51:09.823Z,19.45
2022-09-23T15:53:38.141Z,19.17
2022-09-23T15:56:06.234Z,19.18
2022-09-23T15:58:33.120Z,19.09
2022-09-23T16:01:00.909Z,19.06
2022-09-23T16:03:30.472Z,18.84
2022-09-23T16:06:02.898Z,18.74
2022-09-23T16:08:30.070Z,18.84
2022-09-23T16:10:56.678Z,18.69
2022-09-23T16:13:23.284Z,18.72
2022-09-23T16:15:49.997Z,18.65
2022-09-23T16:18:16.639Z,18.59
2022-09-23T16:20:44.663Z,18.58
2022-09-23T16:23:35.866Z,18.44
2022-09-23T16:26:17.135Z,18.30
2022-09-23T16:28:44.792Z,18.25
2022-09-23T16:31:11.899Z,18.30
2022-09-23T16:33:38.706Z,18.32
2022-09-23T16:36:07.882Z,18.28
2022-09-23T16:38:34.482Z,18.26
2022-09-23T16:41:01.391Z,18.24
2022-09-23T16:43:32.694Z,18.15
2022-09-23T16:45:59.427Z,17.94
2022-09-23T16:48:26.054Z,17.83
2022-09-23T16:50:53.971Z,17.66
2022-09-23T16:53:20.593Z,17.64
2022-09-23T16:55:47.279Z,17.41
2022-09-23T16:58:13.825Z,17.30
2022-09-23T17:01:18.616Z,17.20
2022-09-23T17:03:47.172Z,17.07
2022-09-23T17:06:15.017Z,16.97
2022-09-23T17:08:42.702Z,16.88
2022-09-23T17:11:16.158Z,16.87
2022-09-23T17:13:43.934Z,16.73
2022-09-23T17:16:11.838Z,16.69
2022-09-23T17:18:41.334Z,16.58
2022-09-23T17:21:08.006Z,16.50
2022-09-23T17:23:35.905Z,16.47
2022-09-23T17:26:02.940Z,16.47
2022-09-23T17:28:29.553Z,16.48
2022-09-23T17:30:58.134Z,16.49
2022-09-23T17:33:29.349Z,16.49
2022-09-23T17:35:56.830Z,16.39
2022-09-23T17:38:28.618Z,16.27
2022-09-23T17:40:57.539Z,16.23
2022-09-23T17:43:25.044Z,16.13
2022-09-23T17:45:56.725Z,16.10
2022-09-23T17:48:25.379Z,16.08
2022-09-23T17:50:59.130Z,16.05
2022-09-23T17:53:26.183Z,16.13
2022-09-23T17:56:00.499Z,16.05
2022-09-23T17:58:28.721Z,16.01
2022-09-23T18:00:56.327Z,15.99
2022-09-23T18:03:24.401Z,15.85
2022-09-23T18:05:50.993Z,15.77
2022-09-23T18:08:17.967Z,15.68
2022-09-23T18:10:44.683Z,15.80
2022-09-23T18:13:11.211Z,15.73
2022-09-23T18:15:39.021Z,15.78
2022-09-23T18:18:05.636Z,15.87
2022-09-23T18:20:32.722Z,15.82
2022-09-23T18:22:59.489Z,15.81
2022-09-23T18:25:39.072Z,15.72
2022-09-23T18:28:06.455Z,15.84
2022-09-23T18:30:33.938Z,15.76
2022-09-23T18:33:01.553Z,15.65
2022-09-23T18:35:31.485Z,15.62
2022-09-23T18:37:58.096Z,15.57
2022-09-23T18:40:24.692Z,15.49
2022-09-23T18:42:51.528Z,15.48
2022-09-23T18:45:18.221Z,15.45
2022-09-23T18:48:07.674Z,15.45
2022-09-23T18:50:40.249Z,15.40
2022-09-23T18:53:07.881Z,15.48
2022-09-23T18:55:35.629Z,15.48
2022-09-23T18:58:02.190Z,15.62
2022-09-23T19:00:29.146Z,15.57
2022-09-23T19:02:57.757Z,15.58
2022-09-23T19:05:24.357Z,15.61
2022-09-23T19:07:51.331Z,15.66
2022-09-23T19:10:19.152Z,15.70
2022-09-23T19:12:46.605Z,15.69
2022-09-23T19:15:14.191Z,15.67
2022-09-23T19:17:40.857Z,15.65
2022-09-23T19:20:08.099Z,15.66
2022-09-23T19:22:34.805Z,15.61
2022-09-23T19:25:01.469Z,15.57
2022-09-23T19:27:28.684Z,15.35
2022-09-23T19:29:55.382Z,15.41
2022-09-23T19:32:27.005Z,15.39
2022-09-23T19:34:53.709Z,15.33
2022-09-23T19:37:20.272Z,15.33
2022-09-23T19:39:47.622Z,15.29
2022-09-23T19:42:14.363Z,15.27
2022-09-23T19:44:41.186Z,15.17
2022-09-23T19:47:10.216Z,15.11
2022-09-23T19:49:36.824Z,15.09
2022-09-23T19:52:03.367Z,14.96
2022-09-23T19:54:29.870Z,14.96
2022-09-23T19:56:56.474Z,14.86
2022-09-23T19:59:23.135Z,14.77
2022-09-23T20:01:49.759Z,14.75
2022-09-23T20:04:17.080Z,14.79
2022-09-23T20:06:45.850Z,14.80
2022-09-23T20:09:12.507Z,14.85
2022-09-23T20:11:40.581Z,14.87
2022-09-23T20:14:07.251Z,14.83
2022-09-23T20:16:35.783Z,14.80
2022-09-23T20:19:04.388Z,14.69
2022-09-23T20:21:31.431Z,14.69
2022-09-23T20:23:58.316Z,14.65
2022-09-23T20:26:43.580Z,14.68
2022-09-23T20:29:11.064Z,14.56
2022-09-23T20:31:40.331Z,14.67
2022-09-23T20:34:08.288Z,14.72
2022-09-23T20:36:36.031Z,14.69
2022-09-23T20:39:06.223Z,14.66
2022-09-23T20:41:37.617Z,14.55
2022-09-23T20:44:07.350Z,14.63
2022-09-23T20:46:34.371Z,14.56
2022-09-23T20:49:01.987Z,14.55
2022-09-23T20:51:28.740Z,14.56
2022-09-23T20:53:55.804Z,14.53
2022-09-23T20:56:22.677Z,14.51
2022-09-23T20:58:50.685Z,14.50
2022-09-23T21:01:17.774Z,14.45
2022-09-23T21:03:46.216Z,14.37
2022-09-23T21:06:14.483Z,14.35
2022-09-23T21:08:42.195Z,14.39
2022-09-23T21:11:14.918Z,14.39
2022-09-23T21:13:47.060Z,14.34
2022-09-23T21:16:15.893Z,14.38
2022-09-23T21:18:43.460Z,14.32
2022-09-23T21:21:10.955Z,14.30
2022-09-23T21:23:39.543Z,14.32
2022-09-23T21:26:08.746Z,14.31
2022-09-23T21:28:42.790Z,14.40
2022-09-23T21:31:27.038Z,14.43
2022-09-23T21:34:12.599Z,14.32
2022-09-23T21:36:42.690Z,14.32
2022-09-23T21:39:10.511Z,14.36
2022-09-23T21:41:37.829Z,14.37
2022-09-23T21:44:05.260Z,14.36
2022-09-23T21:46:33.898Z,14.33
2022-09-23T21:49:02.168Z,14.25
2022-09-23T21:51:40.459Z,14.17
2022-09-23T21:54:11.895Z,14.15
2022-09-23T21:56:38.479Z,14.16
2022-09-23T21:59:05.714Z,14.12
2022-09-23T22:01:35.015Z,14.16
2022-09-23T22:04:08.432Z,14.19
2022-09-23T22:06:38.026Z,14.18
2022-09-23T22:09:08.882Z,14.19
2022-09-23T22:11:55.467Z,14.05
2022-09-23T22:14:26.385Z,13.99
2022-09-23T22:16:57.262Z,13.94
2022-09-23T22:19:32.801Z,13.89
2022-09-23T22:21:59.395Z,13.85
2022-09-23T22:24:25.997Z,13.84
2022-09-23T22:26:52.676Z,13.83
2022-09-23T22:29:38.202Z,13.80
2022-09-23T22:32:24.591Z,13.88
2022-09-23T22:34:52.721Z,13.89
2022-09-23T22:37:21.740Z,13.85
2022-09-23T22:39:48.403Z,13.76
2022-09-23T22:42:14.979Z,13.76
2022-09-23T22:44:41.580Z,13.62
2022-09-23T22:47:09.784Z,13.53
2022-09-23T22:49:36.647Z,13.56
2022-09-23T22:52:06.949Z,13.57
2022-09-23T22:54:34.596Z,13.64
2022-09-23T22:57:03.965Z,13.43
2022-09-23T22:59:30.689Z,13.57
2022-09-23T23:01:59.749Z,13.60
2022-09-23T23:04:26.992Z,13.68
2022-09-23T23:06:53.566Z,13.77
2022-09-23T23:09:20.162Z,13.78
2022-09-23T23:11:47.167Z,13.83
2022-09-23T23:14:16.447Z,13.85
2022-09-23T23:16:43.962Z,13.90
2022-09-23T23:19:13.401Z,13.88
2022-09-23T23:21:43.456Z,13.88
2022-09-23T23:24:23.986Z,13.83
2022-09-23T23:26:51.514Z,13.85
2022-09-23T23:29:19.943Z,13.74
2022-09-23T23:31:47.272Z,13.77
2022-09-23T23:34:16.673Z,13.74
2022-09-23T23:36:44.291Z,13.84
2022-09-23T23:39:11.400Z,13.78
2022-09-23T23:41:39.450Z,13.77
2022-09-23T23:44:07.770Z,13.82
2022-09-23T23:46:34.618Z,13.81
2022-09-23T23:49:01.295Z,13.87
2022-09-23T23:51:27.947Z,13.87
2022-09-23T23:53:55.364Z,13.82
2022-09-23T23:56:23.986Z,13.76
2022-09-23T23:58:58.267Z,13.77
